M I D A S
Marine Information and Data Acquisition System
Tripno 1286 of the Zeeleeuw from 2007-06-13 04:51:31 to 2007-06-13 16:40:16
Back to CruiseResearch ActivitiesStationsMapUnderway DataData graphs

EquipmentUnitsComments
TimeDGPSUTC
LatitudeDGPSDM.mWGS84
LongitudeDGPSDM.mWGS84
SpeedMeteo Stationm/sRelative wind speed
DirectionMeteo StationdegRelative wind direction
TemperatureMeteo Stationdeg CelciusAir temperature
PressureMeteo StationPaAtmospheric pressure
HumidityMeteo Station%Relative humidity
Missing or incorrect values are displayed as -999
Metereological data collected by the RV Zeeleeuw from 2007-06-13 04:51:50 to 2007-06-13 16:52:21
                                                                                    Next 1000 lines
Time Latitude Longitude Speed Direction Temperature Pressure Humidity
2007-06-13 04:52:00 51°13.598 2°56.092 -999 -999 -999 -999 -999
2007-06-13 04:52:05 51°13.598 2°56.09 -999 -999 -999 -999 -999
2007-06-13 04:52:10 51°13.598 2°56.088 -999 -999 -999 -999 -999
2007-06-13 04:52:15 51°13.599 2°56.085 -999 -999 -999 -999 -999
2007-06-13 04:52:20 51°13.6 2°56.082 -999 -999 -999 -999 -999
2007-06-13 04:52:25 51°13.601 2°56.079 -999 -999 -999 -999 -999
2007-06-13 04:52:30 51°13.602 2°56.076 -999 -999 -999 -999 -999
2007-06-13 04:52:35 51°13.603 2°56.072 -999 -999 -999 -999 -999
2007-06-13 04:52:40 51°13.605 2°56.068 -999 -999 -999 -999 -999
2007-06-13 04:52:45 51°13.606 2°56.064 -999 -999 -999 -999 -999
2007-06-13 04:52:50 51°13.607 2°56.059 -999 -999 -999 -999 -999
2007-06-13 04:52:55 51°13.608 2°56.055 -999 -999 -999 -999 -999
2007-06-13 04:53:00 51°13.609 2°56.051 -999 -999 -999 -999 -999
2007-06-13 04:53:05 51°13.61 2°56.047 -999 -999 -999 -999 -999
2007-06-13 04:53:10 51°13.611 2°56.044 -999 -999 -999 -999 -999
2007-06-13 04:53:15 51°13.612 2°56.041 -999 -999 -999 -999 -999
2007-06-13 04:53:20 51°13.612 2°56.04 -999 -999 -999 -999 -999
2007-06-13 04:53:25 51°13.612 2°56.04 -999 -999 -999 -999 -999
2007-06-13 04:53:30 51°13.612 2°56.041 -999 -999 -999 -999 -999
2007-06-13 04:53:35 51°13.611 2°56.042 -999 -999 -999 -999 -999
2007-06-13 04:53:40 51°13.611 2°56.044 -999 -999 -999 -999 -999
2007-06-13 04:53:45 51°13.61 2°56.046 -999 -999 -999 -999 -999
2007-06-13 04:53:50 51°13.609 2°56.048 -999 -999 -999 -999 -999
2007-06-13 04:53:55 51°13.608 2°56.05 -999 -999 -999 -999 -999
2007-06-13 04:54:00 51°13.607 2°56.053 -999 -999 -999 -999 -999
2007-06-13 04:54:05 51°13.606 2°56.056 -999 -999 -999 -999 -999
2007-06-13 04:54:10 51°13.604 2°56.06 -999 -999 -999 -999 -999
2007-06-13 04:54:15 51°13.602 2°56.063 -999 -999 -999 -999 -999
2007-06-13 04:54:20 51°13.6 2°56.067 -999 -999 -999 -999 -999
2007-06-13 04:54:25 51°13.598 2°56.071 -999 -999 -999 -999 -999
2007-06-13 04:54:30 51°13.596 2°56.075 -999 -999 -999 -999 -999
2007-06-13 04:54:35 51°13.593 2°56.079 -999 -999 -999 -999 -999
2007-06-13 04:54:40 51°13.591 2°56.083 -999 -999 -999 -999 -999
2007-06-13 04:54:45 51°13.588 2°56.087 -999 -999 -999 -999 -999
2007-06-13 04:54:50 51°13.585 2°56.092 -999 -999 -999 -999 -999
2007-06-13 04:54:55 51°13.582 2°56.096 -999 -999 -999 -999 -999
2007-06-13 04:55:00 51°13.578 2°56.101 -999 -999 -999 -999 -999
2007-06-13 04:55:05 51°13.575 2°56.106 -999 -999 -999 -999 -999
2007-06-13 04:55:10 51°13.571 2°56.11 -999 -999 -999 -999 -999
2007-06-13 04:55:15 51°13.568 2°56.115 -999 -999 -999 -999 -999
2007-06-13 04:55:20 51°13.564 2°56.12 -999 -999 -999 -999 -999
2007-06-13 04:55:25 51°13.56 2°56.125 -999 -999 -999 -999 -999
2007-06-13 04:55:30 51°13.557 2°56.13 -999 -999 -999 -999 -999
2007-06-13 04:55:35 51°13.554 2°56.136 -999 -999 -999 -999 -999
2007-06-13 04:55:40 51°13.55 2°56.141 -999 -999 -999 -999 -999
2007-06-13 04:55:45 51°13.547 2°56.146 -999 -999 -999 -999 -999
2007-06-13 04:55:50 51°13.544 2°56.152 -999 -999 -999 -999 -999
2007-06-13 04:55:55 51°13.542 2°56.158 -999 -999 -999 -999 -999
2007-06-13 04:56:00 51°13.54 2°56.164 -999 -999 -999 -999 -999
2007-06-13 04:56:05 51°13.538 2°56.17 -999 -999 -999 -999 -999
2007-06-13 04:56:10 51°13.536 2°56.176 -999 -999 -999 -999 -999
2007-06-13 04:56:15 51°13.535 2°56.182 -999 -999 -999 -999 -999
2007-06-13 04:56:20 51°13.535 2°56.188 -999 -999 -999 -999 -999
2007-06-13 04:56:25 51°13.534 2°56.194 -999 -999 -999 -999 -999
2007-06-13 04:56:30 51°13.534 2°56.199 -999 -999 -999 -999 -999
2007-06-13 04:56:35 51°13.534 2°56.205 -999 -999 -999 -999 -999
2007-06-13 04:56:40 51°13.534 2°56.211 -999 -999 -999 -999 -999
2007-06-13 04:56:45 51°13.534 2°56.216 -999 -999 -999 -999 -999
2007-06-13 04:56:50 51°13.534 2°56.222 -999 -999 -999 -999 -999
2007-06-13 04:56:55 51°13.535 2°56.227 -999 -999 -999 -999 -999
2007-06-13 04:57:00 51°13.536 2°56.232 -999 -999 -999 -999 -999
2007-06-13 04:57:05 51°13.537 2°56.237 -999 -999 -999 -999 -999
2007-06-13 04:57:10 51°13.538 2°56.24 -999 -999 -999 -999 -999
2007-06-13 04:57:15 51°13.539 2°56.242 -999 -999 -999 -999 -999
2007-06-13 04:57:20 51°13.539 2°56.244 -999 -999 -999 -999 -999
2007-06-13 04:57:25 51°13.54 2°56.245 -999 -999 -999 -999 -999
2007-06-13 04:57:30 51°13.54 2°56.245 -999 -999 -999 -999 -999
2007-06-13 04:57:35 51°13.539 2°56.244 -999 -999 -999 -999 -999
2007-06-13 04:57:40 51°13.539 2°56.243 -999 -999 -999 -999 -999
2007-06-13 04:57:45 51°13.538 2°56.241 -999 -999 -999 -999 -999
2007-06-13 04:57:50 51°13.537 2°56.239 -999 -999 -999 -999 -999
2007-06-13 04:57:55 51°13.537 2°56.237 -999 -999 -999 -999 -999
2007-06-13 04:58:00 51°13.536 2°56.235 -999 -999 -999 -999 -999
2007-06-13 04:58:05 51°13.535 2°56.233 -999 -999 -999 -999 -999
2007-06-13 04:58:10 51°13.535 2°56.232 -999 -999 -999 -999 -999
2007-06-13 04:58:15 51°13.535 2°56.231 -999 -999 -999 -999 -999
2007-06-13 04:58:20 51°13.535 2°56.231 -999 -999 -999 -999 -999
2007-06-13 04:58:25 51°13.535 2°56.232 -999 -999 -999 -999 -999
2007-06-13 04:58:30 51°13.536 2°56.233 -999 -999 -999 -999 -999
2007-06-13 04:58:35 51°13.537 2°56.234 -999 -999 -999 -999 -999
2007-06-13 04:58:40 51°13.539 2°56.235 -999 -999 -999 -999 -999
2007-06-13 04:58:45 51°13.54 2°56.237 -999 -999 -999 -999 -999
2007-06-13 04:58:50 51°13.541 2°56.238 -999 -999 -999 -999 -999
2007-06-13 04:58:55 51°13.542 2°56.238 -999 -999 -999 -999 -999
2007-06-13 04:59:00 51°13.543 2°56.239 -999 -999 -999 -999 -999
2007-06-13 04:59:05 51°13.543 2°56.239 -999 -999 -999 -999 -999
2007-06-13 04:59:10 51°13.543 2°56.239 -999 -999 -999 -999 -999
2007-06-13 04:59:15 51°13.542 2°56.239 -999 -999 -999 -999 -999
2007-06-13 04:59:20 51°13.54 2°56.238 -999 -999 -999 -999 -999
2007-06-13 04:59:25 51°13.538 2°56.238 -999 -999 -999 -999 -999
2007-06-13 04:59:30 51°13.535 2°56.237 -999 -999 -999 -999 -999
2007-06-13 04:59:35 51°13.533 2°56.236 -999 -999 -999 -999 -999
2007-06-13 04:59:40 51°13.53 2°56.236 -999 -999 -999 -999 -999
2007-06-13 04:59:45 51°13.528 2°56.235 -999 -999 -999 -999 -999
2007-06-13 04:59:50 51°13.526 2°56.235 -999 -999 -999 -999 -999
2007-06-13 04:59:55 51°13.524 2°56.235 -999 -999 -999 -999 -999
2007-06-13 05:00:00 51°13.523 2°56.234 -999 -999 -999 -999 -999
2007-06-13 05:00:05 51°13.521 2°56.234 -999 -999 -999 -999 -999
2007-06-13 05:00:10 51°13.52 2°56.234 -999 -999 -999 -999 -999
2007-06-13 05:00:15 51°13.519 2°56.233 -999 -999 -999 -999 -999
2007-06-13 05:00:20 51°13.518 2°56.233 -999 -999 -999 -999 -999
2007-06-13 05:00:25 51°13.518 2°56.233 -999 -999 -999 -999 -999
2007-06-13 05:00:30 51°13.518 2°56.233 -999 -999 -999 -999 -999
2007-06-13 05:00:35 51°13.518 2°56.233 -999 -999 -999 -999 -999
2007-06-13 05:00:40 51°13.518 2°56.233 -999 -999 -999 -999 -999
2007-06-13 05:00:45 51°13.519 2°56.233 -999 -999 -999 -999 -999
2007-06-13 05:00:50 51°13.519 2°56.233 -999 -999 -999 -999 -999
2007-06-13 05:00:55 51°13.521 2°56.232 -999 -999 -999 -999 -999
2007-06-13 05:01:00 51°13.522 2°56.232 -999 -999 -999 -999 -999
2007-06-13 05:01:05 51°13.525 2°56.23 -999 -999 -999 -999 -999
2007-06-13 05:01:10 51°13.527 2°56.229 -999 -999 -999 -999 -999
2007-06-13 05:01:15 51°13.53 2°56.226 -999 -999 -999 -999 -999
2007-06-13 05:01:20 51°13.533 2°56.222 -999 -999 -999 -999 -999
2007-06-13 05:01:25 51°13.536 2°56.217 -999 -999 -999 -999 -999
2007-06-13 05:01:30 51°13.539 2°56.211 -999 -999 -999 -999 -999
2007-06-13 05:01:35 51°13.542 2°56.205 -999 -999 -999 -999 -999
2007-06-13 05:01:40 51°13.545 2°56.198 -999 -999 -999 -999 -999
2007-06-13 05:01:45 51°13.548 2°56.19 -999 -999 -999 -999 -999
2007-06-13 05:01:50 51°13.55 2°56.182 -999 -999 -999 -999 -999
2007-06-13 05:01:55 51°13.553 2°56.173 -999 -999 -999 -999 -999
2007-06-13 05:02:00 51°13.556 2°56.164 -999 -999 -999 -999 -999
2007-06-13 05:02:05 51°13.559 2°56.154 -999 -999 -999 -999 -999
2007-06-13 05:02:10 51°13.562 2°56.144 -999 -999 -999 -999 -999
2007-06-13 05:02:15 51°13.565 2°56.133 -999 -999 -999 -999 -999
2007-06-13 05:02:20 51°13.569 2°56.123 -999 -999 -999 -999 -999
2007-06-13 05:02:25 51°13.572 2°56.112 -999 -999 -999 -999 -999
2007-06-13 05:02:30 51°13.576 2°56.101 -999 -999 -999 -999 -999
2007-06-13 05:02:35 51°13.58 2°56.09 -999 -999 -999 -999 -999
2007-06-13 05:02:40 51°13.584 2°56.078 -999 -999 -999 -999 -999
2007-06-13 05:02:45 51°13.589 2°56.065 -999 -999 -999 -999 -999
2007-06-13 05:02:50 51°13.594 2°56.051 -999 -999 -999 -999 -999
2007-06-13 05:02:55 51°13.6 2°56.037 -999 -999 -999 -999 -999
2007-06-13 05:03:00 51°13.606 2°56.022 -999 -999 -999 -999 -999
2007-06-13 05:03:05 51°13.612 2°56.006 -999 -999 -999 -999 -999
2007-06-13 05:03:10 51°13.619 2°55.989 -999 -999 -999 -999 -999
2007-06-13 05:03:15 51°13.625 2°55.972 -999 -999 -999 -999 -999
2007-06-13 05:03:20 51°13.633 2°55.954 -999 -999 -999 -999 -999
2007-06-13 05:03:25 51°13.64 2°55.936 -999 -999 -999 -999 -999
2007-06-13 05:03:30 51°13.648 2°55.918 -999 -999 -999 -999 -999
2007-06-13 05:03:35 51°13.656 2°55.9 -999 -999 -999 -999 -999
2007-06-13 05:03:40 51°13.664 2°55.882 -999 -999 -999 -999 -999
2007-06-13 05:03:45 51°13.672 2°55.863 -999 -999 -999 -999 -999
2007-06-13 05:03:50 51°13.68 2°55.844 -999 -999 -999 -999 -999
2007-06-13 05:03:55 51°13.688 2°55.826 -999 -999 -999 -999 -999
2007-06-13 05:04:00 51°13.696 2°55.809 -999 -999 -999 -999 -999
2007-06-13 05:04:05 51°13.705 2°55.791 -999 -999 -999 -999 -999
2007-06-13 05:04:10 51°13.714 2°55.775 -999 -999 -999 -999 -999
2007-06-13 05:04:15 51°13.723 2°55.759 -999 -999 -999 -999 -999
2007-06-13 05:04:20 51°13.732 2°55.744 -999 -999 -999 -999 -999
2007-06-13 05:04:25 51°13.741 2°55.729 -999 -999 -999 -999 -999
2007-06-13 05:04:30 51°13.751 2°55.714 -999 -999 -999 -999 -999
2007-06-13 05:04:35 51°13.761 2°55.701 -999 -999 -999 -999 -999
2007-06-13 05:04:40 51°13.771 2°55.688 -999 -999 -999 -999 -999
2007-06-13 05:04:45 51°13.781 2°55.675 -999 -999 -999 -999 -999
2007-06-13 05:04:50 51°13.791 2°55.664 -999 -999 -999 -999 -999
2007-06-13 05:04:55 51°13.802 2°55.653 -999 -999 -999 -999 -999
2007-06-13 05:05:00 51°13.813 2°55.643 -999 -999 -999 -999 -999
2007-06-13 05:05:05 51°13.824 2°55.632 -999 -999 -999 -999 -999
2007-06-13 05:05:10 51°13.836 2°55.624 -999 -999 -999 -999 -999
2007-06-13 05:05:15 51°13.847 2°55.614 -999 -999 -999 -999 -999
2007-06-13 05:05:20 51°13.858 2°55.605 -999 -999 -999 -999 -999
2007-06-13 05:05:25 51°13.871 2°55.598 -999 -999 -999 -999 -999
2007-06-13 05:05:30 51°13.884 2°55.591 -999 -999 -999 -999 -999
2007-06-13 05:05:35 51°13.896 2°55.584 -999 -999 -999 -999 -999
2007-06-13 05:05:40 51°13.908 2°55.575 -999 -999 -999 -999 -999
2007-06-13 05:05:45 51°13.92 2°55.567 -999 -999 -999 -999 -999
2007-06-13 05:05:50 51°13.931 2°55.558 -999 -999 -999 -999 -999
2007-06-13 05:05:55 51°13.943 2°55.549 -999 -999 -999 -999 -999
2007-06-13 05:06:00 51°13.956 2°55.541 -999 -999 -999 -999 -999
2007-06-13 05:06:05 51°13.968 2°55.533 -999 -999 -999 -999 -999
2007-06-13 05:06:10 51°13.981 2°55.524 -999 -999 -999 -999 -999
2007-06-13 05:06:15 51°13.994 2°55.516 -999 -999 -999 -999 -999
2007-06-13 05:06:20 51°14.006 2°55.508 -999 -999 -999 -999 -999
2007-06-13 05:06:25 51°14.019 2°55.499 -999 -999 -999 -999 -999
2007-06-13 05:06:30 51°14.031 2°55.49 -999 -999 -999 -999 -999
2007-06-13 05:06:35 51°14.044 2°55.482 -999 -999 -999 -999 -999
2007-06-13 05:06:40 51°14.057 2°55.473 -999 -999 -999 -999 -999
2007-06-13 05:06:45 51°14.07 2°55.465 -999 -999 -999 -999 -999
2007-06-13 05:06:50 51°14.082 2°55.456 -999 -999 -999 -999 -999
2007-06-13 05:06:55 51°14.095 2°55.447 -999 -999 -999 -999 -999
2007-06-13 05:07:00 51°14.108 2°55.438 -999 -999 -999 -999 -999
2007-06-13 05:07:05 51°14.12 2°55.428 -999 -999 -999 -999 -999
2007-06-13 05:07:10 51°14.133 2°55.419 -999 -999 -999 -999 -999
2007-06-13 05:07:15 51°14.146 2°55.408 -999 -999 -999 -999 -999
2007-06-13 05:07:20 51°14.159 2°55.397 -999 -999 -999 -999 -999
2007-06-13 05:07:25 51°14.171 2°55.385 -999 -999 -999 -999 -999
2007-06-13 05:07:30 51°14.184 2°55.372 -999 -999 -999 -999 -999
2007-06-13 05:07:35 51°14.197 2°55.359 -999 -999 -999 -999 -999
2007-06-13 05:07:40 51°14.21 2°55.346 -999 -999 -999 -999 -999
2007-06-13 05:07:45 51°14.222 2°55.331 -999 -999 -999 -999 -999
2007-06-13 05:07:50 51°14.235 2°55.316 -999 -999 -999 -999 -999
2007-06-13 05:07:55 51°14.247 2°55.3 -999 -999 -999 -999 -999
2007-06-13 05:08:00 51°14.259 2°55.285 -999 -999 -999 -999 -999
2007-06-13 05:08:05 51°14.271 2°55.268 -999 -999 -999 -999 -999
2007-06-13 05:08:10 51°14.282 2°55.251 -999 -999 -999 -999 -999
2007-06-13 05:08:15 51°14.293 2°55.232 -999 -999 -999 -999 -999
2007-06-13 05:08:20 51°14.305 2°55.214 -999 -999 -999 -999 -999
2007-06-13 05:08:25 51°14.316 2°55.194 -999 -999 -999 -999 -999
2007-06-13 05:08:30 51°14.327 2°55.175 -999 -999 -999 -999 -999
2007-06-13 05:08:35 51°14.339 2°55.156 -999 -999 -999 -999 -999
2007-06-13 05:08:40 51°14.351 2°55.137 -999 -999 -999 -999 -999
2007-06-13 05:08:45 51°14.363 2°55.118 -999 -999 -999 -999 -999
2007-06-13 05:08:50 51°14.375 2°55.1 -999 -999 -999 -999 -999
2007-06-13 05:08:55 51°14.388 2°55.083 -999 -999 -999 -999 -999
2007-06-13 05:09:00 51°14.401 2°55.065 -999 -999 -999 -999 -999
2007-06-13 05:09:05 51°14.414 2°55.047 -999 -999 -999 -999 -999
2007-06-13 05:09:10 51°14.428 2°55.029 -999 -999 -999 -999 -999
2007-06-13 05:09:15 51°14.442 2°55.011 -999 -999 -999 -999 -999
2007-06-13 05:09:20 51°14.455 2°54.992 -999 -999 -999 -999 -999
2007-06-13 05:09:25 51°14.469 2°54.972 -999 -999 -999 -999 -999
2007-06-13 05:09:30 51°14.481 2°54.951 -999 -999 -999 -999 -999
2007-06-13 05:09:35 51°14.494 2°54.931 -999 -999 -999 -999 -999
2007-06-13 05:09:40 51°14.508 2°54.911 -999 -999 -999 -999 -999
2007-06-13 05:09:45 51°14.522 2°54.893 -999 -999 -999 -999 -999
2007-06-13 05:09:50 51°14.536 2°54.875 -999 -999 -999 -999 -999
2007-06-13 05:09:55 51°14.55 2°54.859 -999 -999 -999 -999 -999
2007-06-13 05:10:00 51°14.566 2°54.843 -999 -999 -999 -999 -999
2007-06-13 05:10:05 51°14.581 2°54.828 -999 -999 -999 -999 -999
2007-06-13 05:10:10 51°14.596 2°54.813 -999 -999 -999 -999 -999
2007-06-13 05:10:15 51°14.611 2°54.797 -999 -999 -999 -999 -999
2007-06-13 05:10:20 51°14.625 2°54.781 -999 -999 -999 -999 -999
2007-06-13 05:10:25 51°14.64 2°54.764 -999 -999 -999 -999 -999
2007-06-13 05:10:30 51°14.654 2°54.747 -999 -999 -999 -999 -999
2007-06-13 05:10:35 51°14.667 2°54.728 -999 -999 -999 -999 -999
2007-06-13 05:10:40 51°14.68 2°54.708 -999 -999 -999 -999 -999
2007-06-13 05:10:45 51°14.694 2°54.688 -999 -999 -999 -999 -999
2007-06-13 05:10:50 51°14.706 2°54.667 -999 -999 -999 -999 -999
2007-06-13 05:10:55 51°14.719 2°54.646 -999 -999 -999 -999 -999
2007-06-13 05:11:00 51°14.732 2°54.625 -999 -999 -999 -999 -999
2007-06-13 05:11:05 51°14.745 2°54.604 -999 -999 -999 -999 -999
2007-06-13 05:11:10 51°14.758 2°54.584 -999 -999 -999 -999 -999
2007-06-13 05:11:15 51°14.771 2°54.564 -999 -999 -999 -999 -999
2007-06-13 05:11:20 51°14.784 2°54.543 -999 -999 -999 -999 -999
2007-06-13 05:11:25 51°14.798 2°54.523 -999 -999 -999 -999 -999
2007-06-13 05:11:30 51°14.811 2°54.503 -999 -999 -999 -999 -999
2007-06-13 05:11:35 51°14.825 2°54.484 -999 -999 -999 -999 -999
2007-06-13 05:11:40 51°14.838 2°54.464 -999 -999 -999 -999 -999
2007-06-13 05:11:45 51°14.851 2°54.444 -999 -999 -999 -999 -999
2007-06-13 05:11:50 51°14.863 2°54.422 -999 -999 -999 -999 -999
2007-06-13 05:11:55 51°14.874 2°54.399 -999 -999 -999 -999 -999
2007-06-13 05:12:00 51°14.884 2°54.374 -999 -999 -999 -999 -999
2007-06-13 05:12:05 51°14.892 2°54.348 -999 -999 -999 -999 -999
2007-06-13 05:12:10 51°14.899 2°54.321 -999 -999 -999 -999 -999
2007-06-13 05:12:15 51°14.905 2°54.294 -999 -999 -999 -999 -999
2007-06-13 05:12:20 51°14.911 2°54.267 -999 -999 -999 -999 -999
2007-06-13 05:12:25 51°14.916 2°54.24 -999 -999 -999 -999 -999
2007-06-13 05:12:30 51°14.921 2°54.212 -999 -999 -999 -999 -999
2007-06-13 05:12:35 51°14.926 2°54.184 -999 -999 -999 -999 -999
2007-06-13 05:12:40 51°14.93 2°54.156 -999 -999 -999 -999 -999
2007-06-13 05:12:45 51°14.934 2°54.127 -999 -999 -999 -999 -999
2007-06-13 05:12:50 51°14.937 2°54.099 -999 -999 -999 -999 -999
2007-06-13 05:12:55 51°14.941 2°54.07 -999 -999 -999 -999 -999
2007-06-13 05:13:00 51°14.945 2°54.041 -999 -999 -999 -999 -999
2007-06-13 05:13:05 51°14.948 2°54.012 -999 -999 -999 -999 -999
2007-06-13 05:13:10 51°14.951 2°53.982 -999 -999 -999 -999 -999
2007-06-13 05:13:15 51°14.955 2°53.953 -999 -999 -999 -999 -999
2007-06-13 05:13:20 51°14.959 2°53.924 -999 -999 -999 -999 -999
2007-06-13 05:13:25 51°14.963 2°53.895 -999 -999 -999 -999 -999
2007-06-13 05:13:30 51°14.967 2°53.866 -999 -999 -999 -999 -999
2007-06-13 05:13:35 51°14.972 2°53.837 -999 -999 -999 -999 -999
2007-06-13 05:13:40 51°14.977 2°53.808 -999 -999 -999 -999 -999
2007-06-13 05:13:45 51°14.983 2°53.779 -999 -999 -999 -999 -999
2007-06-13 05:13:50 51°14.989 2°53.751 -999 -999 -999 -999 -999
2007-06-13 05:13:55 51°14.995 2°53.723 -999 -999 -999 -999 -999
2007-06-13 05:14:00 51°15.002 2°53.695 -999 -999 -999 -999 -999
2007-06-13 05:14:05 51°15.008 2°53.667 -999 -999 -999 -999 -999
2007-06-13 05:14:10 51°15.015 2°53.639 -999 -999 -999 -999 -999
2007-06-13 05:14:15 51°15.021 2°53.611 -999 -999 -999 -999 -999
2007-06-13 05:14:20 51°15.027 2°53.583 -999 -999 -999 -999 -999
2007-06-13 05:14:25 51°15.033 2°53.554 -999 -999 -999 -999 -999
2007-06-13 05:14:30 51°15.039 2°53.526 -999 -999 -999 -999 -999
2007-06-13 05:14:35 51°15.044 2°53.496 -999 -999 -999 -999 -999
2007-06-13 05:14:40 51°15.048 2°53.467 -999 -999 -999 -999 -999
2007-06-13 05:14:45 51°15.053 2°53.438 -999 -999 -999 -999 -999
2007-06-13 05:14:50 51°15.057 2°53.408 -999 -999 -999 -999 -999
2007-06-13 05:14:55 51°15.061 2°53.379 -999 -999 -999 -999 -999
2007-06-13 05:15:00 51°15.066 2°53.349 -999 -999 -999 -999 -999
2007-06-13 05:15:05 51°15.07 2°53.32 -999 -999 -999 -999 -999
2007-06-13 05:15:10 51°15.074 2°53.29 -999 -999 -999 -999 -999
2007-06-13 05:15:15 51°15.079 2°53.26 -999 -999 -999 -999 -999
2007-06-13 05:15:20 51°15.084 2°53.231 -999 -999 -999 -999 -999
2007-06-13 05:15:25 51°15.089 2°53.201 -999 -999 -999 -999 -999
2007-06-13 05:15:30 51°15.095 2°53.172 -999 -999 -999 -999 -999
2007-06-13 05:15:35 51°15.1 2°53.143 -999 -999 -999 -999 -999
2007-06-13 05:15:40 51°15.106 2°53.114 -999 -999 -999 -999 -999
2007-06-13 05:15:45 51°15.112 2°53.085 -999 -999 -999 -999 -999
2007-06-13 05:15:50 51°15.117 2°53.056 -999 -999 -999 -999 -999
2007-06-13 05:15:55 51°15.123 2°53.027 -999 -999 -999 -999 -999
2007-06-13 05:16:00 51°15.128 2°52.998 -999 -999 -999 -999 -999
2007-06-13 05:16:05 51°15.134 2°52.968 -999 -999 -999 -999 -999
2007-06-13 05:16:10 51°15.139 2°52.938 -999 -999 -999 -999 -999
2007-06-13 05:16:15 51°15.144 2°52.909 -999 -999 -999 -999 -999
2007-06-13 05:16:20 51°15.148 2°52.879 -999 -999 -999 -999 -999
2007-06-13 05:16:25 51°15.153 2°52.849 -999 -999 -999 -999 -999
2007-06-13 05:16:30 51°15.158 2°52.82 -999 -999 -999 -999 -999
2007-06-13 05:16:35 51°15.162 2°52.79 -999 -999 -999 -999 -999
2007-06-13 05:16:40 51°15.167 2°52.76 -999 -999 -999 -999 -999
2007-06-13 05:16:45 51°15.172 2°52.731 -999 -999 -999 -999 -999
2007-06-13 05:16:50 51°15.177 2°52.701 -999 -999 -999 -999 -999
2007-06-13 05:16:55 51°15.183 2°52.671 -999 -999 -999 -999 -999
2007-06-13 05:17:00 51°15.188 2°52.642 -999 -999 -999 -999 -999
2007-06-13 05:17:05 51°15.193 2°52.612 -999 -999 -999 -999 -999
2007-06-13 05:17:10 51°15.199 2°52.583 -999 -999 -999 -999 -999
2007-06-13 05:17:15 51°15.204 2°52.553 -999 -999 -999 -999 -999
2007-06-13 05:17:20 51°15.209 2°52.524 -999 -999 -999 -999 -999
2007-06-13 05:17:25 51°15.214 2°52.494 -999 -999 -999 -999 -999
2007-06-13 05:17:30 51°15.219 2°52.464 -999 -999 -999 -999 -999
2007-06-13 05:17:35 51°15.223 2°52.434 -999 -999 -999 -999 -999
2007-06-13 05:17:40 51°15.228 2°52.404 -999 -999 -999 -999 -999
2007-06-13 05:17:45 51°15.233 2°52.374 -999 -999 -999 -999 -999
2007-06-13 05:17:50 51°15.238 2°52.345 -999 -999 -999 -999 -999
2007-06-13 05:17:55 51°15.243 2°52.315 -999 -999 -999 -999 -999
2007-06-13 05:18:00 51°15.248 2°52.285 -999 -999 -999 -999 -999
2007-06-13 05:18:05 51°15.252 2°52.255 -999 -999 -999 -999 -999
2007-06-13 05:18:10 51°15.257 2°52.225 -999 -999 -999 -999 -999
2007-06-13 05:18:15 51°15.261 2°52.195 -999 -999 -999 -999 -999
2007-06-13 05:18:20 51°15.265 2°52.165 -999 -999 -999 -999 -999
2007-06-13 05:18:25 51°15.269 2°52.135 -999 -999 -999 -999 -999
2007-06-13 05:18:30 51°15.273 2°52.104 -999 -999 -999 -999 -999
2007-06-13 05:18:35 51°15.277 2°52.074 -999 -999 -999 -999 -999
2007-06-13 05:18:40 51°15.281 2°52.044 -999 -999 -999 -999 -999
2007-06-13 05:18:45 51°15.285 2°52.014 -999 -999 -999 -999 -999
2007-06-13 05:18:50 51°15.289 2°51.984 -999 -999 -999 -999 -999
2007-06-13 05:18:55 51°15.293 2°51.954 -999 -999 -999 -999 -999
2007-06-13 05:19:00 51°15.297 2°51.923 -999 -999 -999 -999 -999
2007-06-13 05:19:05 51°15.301 2°51.893 -999 -999 -999 -999 -999
2007-06-13 05:19:10 51°15.304 2°51.862 -999 -999 -999 -999 -999
2007-06-13 05:19:15 51°15.306 2°51.831 -999 -999 -999 -999 -999
2007-06-13 05:19:20 51°15.308 2°51.801 -999 -999 -999 -999 -999
2007-06-13 05:19:25 51°15.309 2°51.77 -999 -999 -999 -999 -999
2007-06-13 05:19:30 51°15.31 2°51.739 -999 -999 -999 -999 -999
2007-06-13 05:19:35 51°15.311 2°51.708 -999 -999 -999 -999 -999
2007-06-13 05:19:40 51°15.311 2°51.677 -999 -999 -999 -999 -999
2007-06-13 05:19:45 51°15.312 2°51.646 -999 -999 -999 -999 -999
2007-06-13 05:19:50 51°15.312 2°51.614 -999 -999 -999 -999 -999
2007-06-13 05:19:55 51°15.312 2°51.583 -999 -999 -999 -999 -999
2007-06-13 05:20:00 51°15.313 2°51.552 -999 -999 -999 -999 -999
2007-06-13 05:20:05 51°15.314 2°51.521 -999 -999 -999 -999 -999
2007-06-13 05:20:10 51°15.314 2°51.489 -999 -999 -999 -999 -999
2007-06-13 05:20:15 51°15.315 2°51.458 -999 -999 -999 -999 -999
2007-06-13 05:20:20 51°15.315 2°51.427 -999 -999 -999 -999 -999
2007-06-13 05:20:25 51°15.316 2°51.396 -999 -999 -999 -999 -999
2007-06-13 05:20:30 51°15.316 2°51.365 -999 -999 -999 -999 -999
2007-06-13 05:20:35 51°15.317 2°51.333 -999 -999 -999 -999 -999
2007-06-13 05:20:40 51°15.318 2°51.302 -999 -999 -999 -999 -999
2007-06-13 05:20:45 51°15.318 2°51.271 -999 -999 -999 -999 -999
2007-06-13 05:20:50 51°15.319 2°51.24 -999 -999 -999 -999 -999
2007-06-13 05:20:55 51°15.319 2°51.209 -999 -999 -999 -999 -999
2007-06-13 05:21:00 51°15.32 2°51.177 -999 -999 -999 -999 -999
2007-06-13 05:21:05 51°15.32 2°51.146 -999 -999 -999 -999 -999
2007-06-13 05:21:10 51°15.321 2°51.114 -999 -999 -999 -999 -999
2007-06-13 05:21:15 51°15.322 2°51.083 -999 -999 -999 -999 -999
2007-06-13 05:21:20 51°15.323 2°51.051 -999 -999 -999 -999 -999
2007-06-13 05:21:25 51°15.323 2°51.02 -999 -999 -999 -999 -999
2007-06-13 05:21:30 51°15.324 2°50.989 -999 -999 -999 -999 -999
2007-06-13 05:21:35 51°15.324 2°50.958 -999 -999 -999 -999 -999
2007-06-13 05:21:40 51°15.325 2°50.927 -999 -999 -999 -999 -999
2007-06-13 05:21:45 51°15.326 2°50.896 -999 -999 -999 -999 -999
2007-06-13 05:21:50 51°15.327 2°50.865 -999 -999 -999 -999 -999
2007-06-13 05:21:55 51°15.327 2°50.833 -999 -999 -999 -999 -999
2007-06-13 05:22:00 51°15.328 2°50.802 -999 -999 -999 -999 -999
2007-06-13 05:22:05 51°15.328 2°50.771 -999 -999 -999 -999 -999
2007-06-13 05:22:10 51°15.329 2°50.74 -999 -999 -999 -999 -999
2007-06-13 05:22:15 51°15.329 2°50.709 -999 -999 -999 -999 -999
2007-06-13 05:22:20 51°15.33 2°50.678 -999 -999 -999 -999 -999
2007-06-13 05:22:25 51°15.331 2°50.647 -999 -999 -999 -999 -999
2007-06-13 05:22:30 51°15.332 2°50.616 -999 -999 -999 -999 -999
2007-06-13 05:22:35 51°15.332 2°50.585 -999 -999 -999 -999 -999
2007-06-13 05:22:40 51°15.333 2°50.554 -999 -999 -999 -999 -999
2007-06-13 05:22:45 51°15.334 2°50.522 -999 -999 -999 -999 -999
2007-06-13 05:22:50 51°15.335 2°50.491 -999 -999 -999 -999 -999
2007-06-13 05:22:55 51°15.336 2°50.46 -999 -999 -999 -999 -999
2007-06-13 05:23:00 51°15.337 2°50.428 -999 -999 -999 -999 -999
2007-06-13 05:23:05 51°15.338 2°50.396 -999 -999 -999 -999 -999
2007-06-13 05:23:10 51°15.339 2°50.365 -999 -999 -999 -999 -999
2007-06-13 05:23:15 51°15.339 2°50.334 -999 -999 -999 -999 -999
2007-06-13 05:23:20 51°15.34 2°50.303 -999 -999 -999 -999 -999
2007-06-13 05:23:25 51°15.341 2°50.271 -999 -999 -999 -999 -999
2007-06-13 05:23:30 51°15.342 2°50.24 -999 -999 -999 -999 -999
2007-06-13 05:23:35 51°15.342 2°50.209 -999 -999 -999 -999 -999
2007-06-13 05:23:40 51°15.343 2°50.177 -999 -999 -999 -999 -999
2007-06-13 05:23:45 51°15.344 2°50.146 -999 -999 -999 -999 -999
2007-06-13 05:23:50 51°15.345 2°50.115 -999 -999 -999 -999 -999
2007-06-13 05:23:55 51°15.345 2°50.084 -999 -999 -999 -999 -999
2007-06-13 05:24:00 51°15.346 2°50.053 -999 -999 -999 -999 -999
2007-06-13 05:24:05 51°15.347 2°50.023 -999 -999 -999 -999 -999
2007-06-13 05:24:10 51°15.348 2°49.992 -999 -999 -999 -999 -999
2007-06-13 05:24:15 51°15.349 2°49.961 -999 -999 -999 -999 -999
2007-06-13 05:24:20 51°15.349 2°49.931 -999 -999 -999 -999 -999
2007-06-13 05:24:25 51°15.35 2°49.9 -999 -999 -999 -999 -999
2007-06-13 05:24:30 51°15.351 2°49.869 -999 -999 -999 -999 -999
2007-06-13 05:24:35 51°15.353 2°49.837 -999 -999 -999 -999 -999
2007-06-13 05:24:40 51°15.354 2°49.805 -999 -999 -999 -999 -999
2007-06-13 05:24:45 51°15.355 2°49.775 -999 -999 -999 -999 -999
2007-06-13 05:24:50 51°15.356 2°49.745 -999 -999 -999 -999 -999
2007-06-13 05:24:55 51°15.356 2°49.714 -999 -999 -999 -999 -999
2007-06-13 05:25:00 51°15.356 2°49.683 -999 -999 -999 -999 -999
2007-06-13 05:25:05 51°15.356 2°49.652 -999 -999 -999 -999 -999
2007-06-13 05:25:10 51°15.356 2°49.621 -999 -999 -999 -999 -999
2007-06-13 05:25:15 51°15.356 2°49.59 -999 -999 -999 -999 -999
2007-06-13 05:25:20 51°15.356 2°49.559 -999 -999 -999 -999 -999
2007-06-13 05:25:25 51°15.356 2°49.528 -999 -999 -999 -999 -999
2007-06-13 05:25:30 51°15.356 2°49.497 -999 -999 -999 -999 -999
2007-06-13 05:25:35 51°15.356 2°49.466 -999 -999 -999 -999 -999
2007-06-13 05:25:40 51°15.356 2°49.435 -999 -999 -999 -999 -999
2007-06-13 05:25:45 51°15.355 2°49.404 -999 -999 -999 -999 -999
2007-06-13 05:25:50 51°15.355 2°49.373 -999 -999 -999 -999 -999
2007-06-13 05:25:55 51°15.355 2°49.343 -999 -999 -999 -999 -999
2007-06-13 05:26:00 51°15.354 2°49.312 -999 -999 -999 -999 -999
2007-06-13 05:26:05 51°15.354 2°49.281 -999 -999 -999 -999 -999
2007-06-13 05:26:10 51°15.354 2°49.25 -999 -999 -999 -999 -999
2007-06-13 05:26:15 51°15.354 2°49.219 -999 -999 -999 -999 -999
2007-06-13 05:26:20 51°15.354 2°49.188 -999 -999 -999 -999 -999
2007-06-13 05:26:25 51°15.354 2°49.157 -999 -999 -999 -999 -999
2007-06-13 05:26:30 51°15.354 2°49.126 -999 -999 -999 -999 -999
2007-06-13 05:26:35 51°15.354 2°49.095 -999 -999 -999 -999 -999
2007-06-13 05:26:40 51°15.354 2°49.064 -999 -999 -999 -999 -999
2007-06-13 05:26:45 51°15.353 2°49.034 -999 -999 -999 -999 -999
2007-06-13 05:26:50 51°15.353 2°49.003 -999 -999 -999 -999 -999
2007-06-13 05:26:55 51°15.353 2°48.972 -999 -999 -999 -999 -999
2007-06-13 05:27:00 51°15.353 2°48.941 -999 -999 -999 -999 -999
2007-06-13 05:27:05 51°15.353 2°48.91 -999 -999 -999 -999 -999
2007-06-13 05:27:10 51°15.353 2°48.879 -999 -999 -999 -999 -999
2007-06-13 05:27:15 51°15.353 2°48.848 -999 -999 -999 -999 -999
2007-06-13 05:27:20 51°15.353 2°48.817 -999 -999 -999 -999 -999
2007-06-13 05:27:25 51°15.352 2°48.786 -999 -999 -999 -999 -999
2007-06-13 05:27:30 51°15.352 2°48.755 -999 -999 -999 -999 -999
2007-06-13 05:27:35 51°15.352 2°48.725 -999 -999 -999 -999 -999
2007-06-13 05:27:40 51°15.352 2°48.694 -999 -999 -999 -999 -999
2007-06-13 05:27:45 51°15.352 2°48.663 -999 -999 -999 -999 -999
2007-06-13 05:27:50 51°15.352 2°48.632 -999 -999 -999 -999 -999
2007-06-13 05:27:55 51°15.352 2°48.601 -999 -999 -999 -999 -999
2007-06-13 05:28:00 51°15.352 2°48.57 -999 -999 -999 -999 -999
2007-06-13 05:28:05 51°15.351 2°48.54 -999 -999 -999 -999 -999
2007-06-13 05:28:10 51°15.351 2°48.51 -999 -999 -999 -999 -999
2007-06-13 05:28:15 51°15.351 2°48.479 -999 -999 -999 -999 -999
2007-06-13 05:28:20 51°15.35 2°48.449 -999 -999 -999 -999 -999
2007-06-13 05:28:25 51°15.35 2°48.417 -999 -999 -999 -999 -999
2007-06-13 05:28:30 51°15.35 2°48.386 -999 -999 -999 -999 -999
2007-06-13 05:28:35 51°15.35 2°48.356 -999 -999 -999 -999 -999
2007-06-13 05:28:40 51°15.35 2°48.326 -999 -999 -999 -999 -999
2007-06-13 05:28:45 51°15.35 2°48.296 -999 -999 -999 -999 -999
2007-06-13 05:28:50 51°15.35 2°48.266 -999 -999 -999 -999 -999
2007-06-13 05:28:55 51°15.35 2°48.236 -999 -999 -999 -999 -999
2007-06-13 05:29:00 51°15.35 2°48.206 -999 -999 -999 -999 -999
2007-06-13 05:29:05 51°15.351 2°48.175 -999 -999 -999 -999 -999
2007-06-13 05:29:10 51°15.351 2°48.145 -999 -999 -999 -999 -999
2007-06-13 05:29:15 51°15.351 2°48.115 -999 -999 -999 -999 -999
2007-06-13 05:29:20 51°15.351 2°48.085 -999 -999 -999 -999 -999
2007-06-13 05:29:25 51°15.351 2°48.056 -999 -999 -999 -999 -999
2007-06-13 05:29:30 51°15.35 2°48.025 -999 -999 -999 -999 -999
2007-06-13 05:29:35 51°15.35 2°47.995 -999 -999 -999 -999 -999
2007-06-13 05:29:40 51°15.349 2°47.965 -999 -999 -999 -999 -999
2007-06-13 05:29:45 51°15.349 2°47.935 -999 -999 -999 -999 -999
2007-06-13 05:29:50 51°15.348 2°47.904 -999 -999 -999 -999 -999
2007-06-13 05:29:55 51°15.348 2°47.874 -999 -999 -999 -999 -999
2007-06-13 05:30:00 51°15.348 2°47.844 -999 -999 -999 -999 -999
2007-06-13 05:30:05 51°15.349 2°47.814 -999 -999 -999 -999 -999
2007-06-13 05:30:10 51°15.349 2°47.784 -999 -999 -999 -999 -999
2007-06-13 05:30:15 51°15.35 2°47.754 -999 -999 -999 -999 -999
2007-06-13 05:30:20 51°15.35 2°47.724 -999 -999 -999 -999 -999
2007-06-13 05:30:25 51°15.351 2°47.694 -999 -999 -999 -999 -999
2007-06-13 05:30:30 51°15.35 2°47.663 -999 -999 -999 -999 -999
2007-06-13 05:30:35 51°15.35 2°47.633 -999 -999 -999 -999 -999
2007-06-13 05:30:40 51°15.348 2°47.602 -999 -999 -999 -999 -999
2007-06-13 05:30:45 51°15.348 2°47.572 -999 -999 -999 -999 -999
2007-06-13 05:30:50 51°15.346 2°47.541 -999 -999 -999 -999 -999
2007-06-13 05:30:55 51°15.345 2°47.511 -999 -999 -999 -999 -999
2007-06-13 05:31:00 51°15.343 2°47.48 -999 -999 -999 -999 -999
2007-06-13 05:31:05 51°15.342 2°47.45 -999 -999 -999 -999 -999
2007-06-13 05:31:10 51°15.341 2°47.419 -999 -999 -999 -999 -999
2007-06-13 05:31:15 51°15.34 2°47.389 -999 -999 -999 -999 -999
2007-06-13 05:31:20 51°15.339 2°47.358 -999 -999 -999 -999 -999
2007-06-13 05:31:25 51°15.338 2°47.328 -999 -999 -999 -999 -999
2007-06-13 05:31:30 51°15.337 2°47.297 -999 -999 -999 -999 -999
2007-06-13 05:31:35 51°15.336 2°47.266 -999 -999 -999 -999 -999
2007-06-13 05:31:40 51°15.335 2°47.235 -999 -999 -999 -999 -999
2007-06-13 05:31:45 51°15.334 2°47.205 -999 -999 -999 -999 -999
2007-06-13 05:31:50 51°15.333 2°47.174 -999 -999 -999 -999 -999
2007-06-13 05:31:55 51°15.332 2°47.143 -999 -999 -999 -999 -999
2007-06-13 05:32:00 51°15.331 2°47.112 -999 -999 -999 -999 -999
2007-06-13 05:32:05 51°15.33 2°47.082 -999 -999 -999 -999 -999
2007-06-13 05:32:10 51°15.329 2°47.051 -999 -999 -999 -999 -999
2007-06-13 05:32:15 51°15.328 2°47.02 -999 -999 -999 -999 -999
2007-06-13 05:32:20 51°15.327 2°46.989 -999 -999 -999 -999 -999
2007-06-13 05:32:25 51°15.326 2°46.958 -999 -999 -999 -999 -999
2007-06-13 05:32:30 51°15.325 2°46.928 -999 -999 -999 -999 -999
2007-06-13 05:32:35 51°15.323 2°46.897 -999 -999 -999 -999 -999
2007-06-13 05:32:40 51°15.322 2°46.866 -999 -999 -999 -999 -999
2007-06-13 05:32:45 51°15.321 2°46.835 -999 -999 -999 -999 -999
2007-06-13 05:32:50 51°15.32 2°46.804 -999 -999 -999 -999 -999
2007-06-13 05:32:55 51°15.319 2°46.773 -999 -999 -999 -999 -999
2007-06-13 05:33:00 51°15.318 2°46.742 -999 -999 -999 -999 -999
2007-06-13 05:33:05 51°15.317 2°46.711 -999 -999 -999 -999 -999
2007-06-13 05:33:10 51°15.315 2°46.68 -999 -999 -999 -999 -999
2007-06-13 05:33:15 51°15.315 2°46.649 -999 -999 -999 -999 -999
2007-06-13 05:33:20 51°15.313 2°46.619 -999 -999 -999 -999 -999
2007-06-13 05:33:25 51°15.312 2°46.588 -999 -999 -999 -999 -999
2007-06-13 05:33:30 51°15.311 2°46.557 -999 -999 -999 -999 -999
2007-06-13 05:33:35 51°15.31 2°46.526 -999 -999 -999 -999 -999
2007-06-13 05:33:40 51°15.309 2°46.494 -999 -999 -999 -999 -999
2007-06-13 05:33:45 51°15.307 2°46.463 -999 -999 -999 -999 -999
2007-06-13 05:33:50 51°15.306 2°46.432 -999 -999 -999 -999 -999
2007-06-13 05:33:55 51°15.305 2°46.401 -999 -999 -999 -999 -999
2007-06-13 05:34:00 51°15.303 2°46.37 -999 -999 -999 -999 -999
2007-06-13 05:34:05 51°15.302 2°46.339 -999 -999 -999 -999 -999
2007-06-13 05:34:10 51°15.301 2°46.308 -999 -999 -999 -999 -999
2007-06-13 05:34:15 51°15.3 2°46.277 -999 -999 -999 -999 -999
2007-06-13 05:34:20 51°15.299 2°46.246 -999 -999 -999 -999 -999
2007-06-13 05:34:25 51°15.298 2°46.215 -999 -999 -999 -999 -999
2007-06-13 05:34:30 51°15.297 2°46.183 -999 -999 -999 -999 -999
2007-06-13 05:34:35 51°15.296 2°46.152 -999 -999 -999 -999 -999
2007-06-13 05:34:40 51°15.295 2°46.12 -999 -999 -999 -999 -999
2007-06-13 05:34:45 51°15.293 2°46.089 -999 -999 -999 -999 -999
2007-06-13 05:34:50 51°15.292 2°46.058 -999 -999 -999 -999 -999
2007-06-13 05:34:55 51°15.291 2°46.027 -999 -999 -999 -999 -999
2007-06-13 05:35:00 51°15.29 2°45.996 -999 -999 -999 -999 -999
2007-06-13 05:35:05 51°15.288 2°45.965 -999 -999 -999 -999 -999
2007-06-13 05:35:10 51°15.287 2°45.934 -999 -999 -999 -999 -999
2007-06-13 05:35:15 51°15.286 2°45.902 -999 -999 -999 -999 -999
2007-06-13 05:35:20 51°15.285 2°45.871 -999 -999 -999 -999 -999
2007-06-13 05:35:25 51°15.283 2°45.84 -999 -999 -999 -999 -999
2007-06-13 05:35:30 51°15.282 2°45.809 -999 -999 -999 -999 -999
2007-06-13 05:35:35 51°15.28 2°45.778 -999 -999 -999 -999 -999
2007-06-13 05:35:40 51°15.279 2°45.747 -999 -999 -999 -999 -999
2007-06-13 05:35:45 51°15.278 2°45.716 -999 -999 -999 -999 -999
2007-06-13 05:35:50 51°15.277 2°45.684 -999 -999 -999 -999 -999
2007-06-13 05:35:55 51°15.276 2°45.653 -999 -999 -999 -999 -999
2007-06-13 05:36:00 51°15.275 2°45.622 -999 -999 -999 -999 -999
2007-06-13 05:36:05 51°15.273 2°45.591 -999 -999 -999 -999 -999
2007-06-13 05:36:10 51°15.273 2°45.559 -999 -999 -999 -999 -999
2007-06-13 05:36:15 51°15.272 2°45.528 -999 -999 -999 -999 -999
2007-06-13 05:36:20 51°15.27 2°45.497 -999 -999 -999 -999 -999
2007-06-13 05:36:25 51°15.269 2°45.465 -999 -999 -999 -999 -999
2007-06-13 05:36:30 51°15.268 2°45.434 -999 -999 -999 -999 -999
2007-06-13 05:36:35 51°15.266 2°45.403 -999 -999 -999 -999 -999
2007-06-13 05:36:40 51°15.265 2°45.372 -999 -999 -999 -999 -999
2007-06-13 05:36:45 51°15.263 2°45.341 -999 -999 -999 -999 -999
2007-06-13 05:36:50 51°15.262 2°45.309 -999 -999 -999 -999 -999
2007-06-13 05:36:55 51°15.261 2°45.278 -999 -999 -999 -999 -999
2007-06-13 05:37:00 51°15.259 2°45.246 -999 -999 -999 -999 -999
2007-06-13 05:37:05 51°15.258 2°45.215 -999 -999 -999 -999 -999
2007-06-13 05:37:10 51°15.257 2°45.184 -999 -999 -999 -999 -999
2007-06-13 05:37:15 51°15.256 2°45.152 -999 -999 -999 -999 -999
2007-06-13 05:37:20 51°15.255 2°45.121 -999 -999 -999 -999 -999
2007-06-13 05:37:25 51°15.253 2°45.089 -999 -999 -999 -999 -999
2007-06-13 05:37:30 51°15.252 2°45.057 -999 -999 -999 -999 -999
2007-06-13 05:37:35 51°15.251 2°45.026 -999 -999 -999 -999 -999
2007-06-13 05:37:40 51°15.25 2°44.995 -999 -999 -999 -999 -999
2007-06-13 05:37:45 51°15.248 2°44.964 -999 -999 -999 -999 -999
2007-06-13 05:37:50 51°15.247 2°44.932 -999 -999 -999 -999 -999
2007-06-13 05:37:55 51°15.246 2°44.901 -999 -999 -999 -999 -999
2007-06-13 05:38:00 51°15.244 2°44.869 -999 -999 -999 -999 -999
2007-06-13 05:38:05 51°15.243 2°44.838 -999 -999 -999 -999 -999
2007-06-13 05:38:10 51°15.242 2°44.807 -999 -999 -999 -999 -999
2007-06-13 05:38:15 51°15.24 2°44.775 -999 -999 -999 -999 -999
2007-06-13 05:38:20 51°15.239 2°44.744 -999 -999 -999 -999 -999
2007-06-13 05:38:25 51°15.238 2°44.712 -999 -999 -999 -999 -999
2007-06-13 05:38:30 51°15.237 2°44.681 -999 -999 -999 -999 -999
2007-06-13 05:38:35 51°15.235 2°44.65 -999 -999 -999 -999 -999
2007-06-13 05:38:40 51°15.234 2°44.619 -999 -999 -999 -999 -999
2007-06-13 05:38:45 51°15.233 2°44.587 -999 -999 -999 -999 -999
2007-06-13 05:38:50 51°15.232 2°44.556 -999 -999 -999 -999 -999
2007-06-13 05:38:55 51°15.23 2°44.524 -999 -999 -999 -999 -999
2007-06-13 05:39:00 51°15.229 2°44.493 -999 -999 -999 -999 -999
2007-06-13 05:39:05 51°15.228 2°44.462 -999 -999 -999 -999 -999
2007-06-13 05:39:10 51°15.226 2°44.43 -999 -999 -999 -999 -999
2007-06-13 05:39:15 51°15.225 2°44.399 -999 -999 -999 -999 -999
2007-06-13 05:39:20 51°15.224 2°44.368 -999 -999 -999 -999 -999
2007-06-13 05:39:25 51°15.222 2°44.336 -999 -999 -999 -999 -999
2007-06-13 05:39:30 51°15.222 2°44.305 -999 -999 -999 -999 -999
2007-06-13 05:39:35 51°15.22 2°44.273 -999 -999 -999 -999 -999
2007-06-13 05:39:40 51°15.219 2°44.242 -999 -999 -999 -999 -999
2007-06-13 05:39:45 51°15.218 2°44.211 -999 -999 -999 -999 -999
2007-06-13 05:39:50 51°15.216 2°44.179 -999 -999 -999 -999 -999
2007-06-13 05:39:55 51°15.215 2°44.148 -999 -999 -999 -999 -999
2007-06-13 05:40:00 51°15.213 2°44.117 -999 -999 -999 -999 -999
2007-06-13 05:40:05 51°15.212 2°44.086 -999 -999 -999 -999 -999
2007-06-13 05:40:10 51°15.211 2°44.056 -999 -999 -999 -999 -999
2007-06-13 05:40:15 51°15.21 2°44.025 -999 -999 -999 -999 -999
2007-06-13 05:40:20 51°15.208 2°43.994 -999 -999 -999 -999 -999
2007-06-13 05:40:25 51°15.207 2°43.964 -999 -999 -999 -999 -999
2007-06-13 05:40:30 51°15.206 2°43.933 -999 -999 -999 -999 -999
2007-06-13 05:40:35 51°15.204 2°43.902 -999 -999 -999 -999 -999
2007-06-13 05:40:40 51°15.203 2°43.872 -999 -999 -999 -999 -999
2007-06-13 05:40:45 51°15.201 2°43.841 -999 -999 -999 -999 -999
2007-06-13 05:40:50 51°15.2 2°43.811 -999 -999 -999 -999 -999
2007-06-13 05:40:55 51°15.199 2°43.78 -999 -999 -999 -999 -999
2007-06-13 05:41:00 51°15.197 2°43.75 -999 -999 -999 -999 -999
2007-06-13 05:41:05 51°15.195 2°43.719 -999 -999 -999 -999 -999
2007-06-13 05:41:10 51°15.194 2°43.689 -999 -999 -999 -999 -999
2007-06-13 05:41:15 51°15.192 2°43.659 -999 -999 -999 -999 -999
2007-06-13 05:41:20 51°15.191 2°43.628 -999 -999 -999 -999 -999
2007-06-13 05:41:25 51°15.189 2°43.598 -999 -999 -999 -999 -999
2007-06-13 05:41:30 51°15.188 2°43.567 -999 -999 -999 -999 -999
2007-06-13 05:41:35 51°15.186 2°43.537 -999 -999 -999 -999 -999
2007-06-13 05:41:40 51°15.185 2°43.507 -999 -999 -999 -999 -999
2007-06-13 05:41:45 51°15.183 2°43.476 -999 -999 -999 -999 -999
2007-06-13 05:41:50 51°15.182 2°43.446 -999 -999 -999 -999 -999
2007-06-13 05:41:55 51°15.181 2°43.415 -999 -999 -999 -999 -999
2007-06-13 05:42:00 51°15.179 2°43.385 -999 -999 -999 -999 -999
2007-06-13 05:42:05 51°15.178 2°43.355 -999 -999 -999 -999 -999
2007-06-13 05:42:10 51°15.176 2°43.324 -999 -999 -999 -999 -999
2007-06-13 05:42:15 51°15.175 2°43.294 -999 -999 -999 -999 -999
2007-06-13 05:42:20 51°15.173 2°43.263 -999 -999 -999 -999 -999
2007-06-13 05:42:25 51°15.172 2°43.233 -999 -999 -999 -999 -999
2007-06-13 05:42:30 51°15.17 2°43.203 -999 -999 -999 -999 -999
2007-06-13 05:42:35 51°15.169 2°43.172 -999 -999 -999 -999 -999
2007-06-13 05:42:40 51°15.168 2°43.142 -999 -999 -999 -999 -999
2007-06-13 05:42:45 51°15.166 2°43.111 -999 -999 -999 -999 -999
2007-06-13 05:42:50 51°15.165 2°43.081 -999 -999 -999 -999 -999
2007-06-13 05:42:55 51°15.163 2°43.05 -999 -999 -999 -999 -999
2007-06-13 05:43:00 51°15.162 2°43.02 -999 -999 -999 -999 -999
2007-06-13 05:43:05 51°15.161 2°42.99 -999 -999 -999 -999 -999
2007-06-13 05:43:10 51°15.161 2°42.959 -999 -999 -999 -999 -999
2007-06-13 05:43:15 51°15.161 2°42.929 -999 -999 -999 -999 -999
2007-06-13 05:43:20 51°15.161 2°42.899 -999 -999 -999 -999 -999
2007-06-13 05:43:25 51°15.162 2°42.868 -999 -999 -999 -999 -999
2007-06-13 05:43:30 51°15.163 2°42.838 -999 -999 -999 -999 -999
2007-06-13 05:43:35 51°15.164 2°42.808 -999 -999 -999 -999 -999
2007-06-13 05:43:40 51°15.165 2°42.778 -999 -999 -999 -999 -999
2007-06-13 05:43:45 51°15.167 2°42.748 -999 -999 -999 -999 -999
2007-06-13 05:43:50 51°15.169 2°42.718 -999 -999 -999 -999 -999
2007-06-13 05:43:55 51°15.171 2°42.688 -999 -999 -999 -999 -999
2007-06-13 05:44:00 51°15.174 2°42.658 -999 -999 -999 -999 -999
2007-06-13 05:44:05 51°15.177 2°42.628 -999 -999 -999 -999 -999
2007-06-13 05:44:10 51°15.18 2°42.599 -999 -999 -999 -999 -999
2007-06-13 05:44:15 51°15.183 2°42.569 -999 -999 -999 -999 -999
2007-06-13 05:44:20 51°15.186 2°42.54 -999 -999 -999 -999 -999
2007-06-13 05:44:25 51°15.189 2°42.51 -999 -999 -999 -999 -999
2007-06-13 05:44:30 51°15.192 2°42.481 -999 -999 -999 -999 -999
2007-06-13 05:44:35 51°15.195 2°42.452 -999 -999 -999 -999 -999
2007-06-13 05:44:40 51°15.199 2°42.422 -999 -999 -999 -999 -999
2007-06-13 05:44:45 51°15.202 2°42.393 -999 -999 -999 -999 -999
2007-06-13 05:44:50 51°15.205 2°42.363 -999 -999 -999 -999 -999
2007-06-13 05:44:55 51°15.208 2°42.334 -999 -999 -999 -999 -999
2007-06-13 05:45:00 51°15.211 2°42.304 -999 -999 -999 -999 -999
2007-06-13 05:45:05 51°15.216 2°42.276 -999 -999 -999 -999 -999
2007-06-13 05:45:10 51°15.221 2°42.248 -999 -999 -999 -999 -999
2007-06-13 05:45:15 51°15.227 2°42.22 -999 -999 -999 -999 -999
2007-06-13 05:45:20 51°15.234 2°42.193 -999 -999 -999 -999 -999
2007-06-13 05:45:25 51°15.241 2°42.166 -999 -999 -999 -999 -999
2007-06-13 05:45:30 51°15.248 2°42.139 -999 -999 -999 -999 -999
2007-06-13 05:45:35 51°15.256 2°42.112 -999 -999 -999 -999 -999
2007-06-13 05:45:40 51°15.264 2°42.086 -999 -999 -999 -999 -999
2007-06-13 05:45:45 51°15.271 2°42.059 -999 -999 -999 -999 -999
2007-06-13 05:45:50 51°15.279 2°42.033 -999 -999 -999 -999 -999
2007-06-13 05:45:55 51°15.287 2°42.006 -999 -999 -999 -999 -999
2007-06-13 05:46:00 51°15.294 2°41.979 -999 -999 -999 -999 -999
2007-06-13 05:46:05 51°15.302 2°41.953 -999 -999 -999 -999 -999
2007-06-13 05:46:10 51°15.31 2°41.926 -999 -999 -999 -999 -999
2007-06-13 05:46:15 51°15.317 2°41.9 -999 -999 -999 -999 -999
2007-06-13 05:46:20 51°15.325 2°41.873 -999 -999 -999 -999 -999
2007-06-13 05:46:25 51°15.333 2°41.846 -999 -999 -999 -999 -999
2007-06-13 05:46:30 51°15.34 2°41.82 -999 -999 -999 -999 -999
2007-06-13 05:46:35 51°15.348 2°41.793 -999 -999 -999 -999 -999
2007-06-13 05:46:40 51°15.356 2°41.767 -999 -999 -999 -999 -999
2007-06-13 05:46:45 51°15.364 2°41.74 -999 -999 -999 -999 -999
2007-06-13 05:46:50 51°15.371 2°41.713 -999 -999 -999 -999 -999
2007-06-13 05:46:55 51°15.379 2°41.686 -999 -999 -999 -999 -999
2007-06-13 05:47:00 51°15.386 2°41.659 -999 -999 -999 -999 -999
2007-06-13 05:47:05 51°15.394 2°41.633 -999 -999 -999 -999 -999
2007-06-13 05:47:10 51°15.402 2°41.606 -999 -999 -999 -999 -999
2007-06-13 05:47:15 51°15.41 2°41.58 -999 -999 -999 -999 -999
2007-06-13 05:47:20 51°15.419 2°41.556 -999 -999 -999 -999 -999
2007-06-13 05:47:25 51°15.429 2°41.532 -999 -999 -999 -999 -999
2007-06-13 05:47:30 51°15.441 2°41.509 -999 -999 -999 -999 -999
2007-06-13 05:47:35 51°15.452 2°41.487 -999 -999 -999 -999 -999
2007-06-13 05:47:40 51°15.463 2°41.465 -999 -999 -999 -999 -999
2007-06-13 05:47:45 51°15.475 2°41.444 -999 -999 -999 -999 -999
2007-06-13 05:47:50 51°15.487 2°41.422 -999 -999 -999 -999 -999
2007-06-13 05:47:55 51°15.499 2°41.401 -999 -999 -999 -999 -999
2007-06-13 05:48:00 51°15.51 2°41.379 -999 -999 -999 -999 -999
2007-06-13 05:48:05 51°15.522 2°41.358 -999 -999 -999 -999 -999
2007-06-13 05:48:10 51°15.534 2°41.336 -999 -999 -999 -999 -999
2007-06-13 05:48:15 51°15.546 2°41.315 -999 -999 -999 -999 -999
2007-06-13 05:48:20 51°15.558 2°41.293 -999 -999 -999 -999 -999
2007-06-13 05:48:25 51°15.57 2°41.272 -999 -999 -999 -999 -999
2007-06-13 05:48:30 51°15.582 2°41.25 -999 -999 -999 -999 -999
2007-06-13 05:48:35 51°15.594 2°41.229 -999 -999 -999 -999 -999
2007-06-13 05:48:40 51°15.607 2°41.209 -999 -999 -999 -999 -999
2007-06-13 05:48:45 51°15.619 2°41.188 -999 -999 -999 -999 -999
2007-06-13 05:48:50 51°15.632 2°41.167 -999 -999 -999 -999 -999
2007-06-13 05:48:55 51°15.644 2°41.146 -999 -999 -999 -999 -999
2007-06-13 05:49:00 51°15.656 2°41.125 -999 -999 -999 -999 -999
2007-06-13 05:49:05 51°15.668 2°41.104 -999 -999 -999 -999 -999
2007-06-13 05:49:10 51°15.681 2°41.082 -999 -999 -999 -999 -999
2007-06-13 05:49:15 51°15.693 2°41.061 -999 -999 -999 -999 -999
2007-06-13 05:49:20 51°15.705 2°41.04 -999 -999 -999 -999 -999
2007-06-13 05:49:25 51°15.718 2°41.019 -999 -999 -999 -999 -999
2007-06-13 05:49:30 51°15.73 2°40.998 -999 -999 -999 -999 -999
2007-06-13 05:49:35 51°15.742 2°40.976 -999 -999 -999 -999 -999
2007-06-13 05:49:40 51°15.754 2°40.955 -999 -999 -999 -999 -999
2007-06-13 05:49:45 51°15.766 2°40.933 -999 -999 -999 -999 -999
2007-06-13 05:49:50 51°15.778 2°40.912 -999 -999 -999 -999 -999
2007-06-13 05:49:55 51°15.79 2°40.89 -999 -999 -999 -999 -999
2007-06-13 05:50:00 51°15.803 2°40.869 -999 -999 -999 -999 -999
2007-06-13 05:50:05 51°15.815 2°40.847 -999 -999 -999 -999 -999
2007-06-13 05:50:10 51°15.827 2°40.825 -999 -999 -999 -999 -999
2007-06-13 05:50:15 51°15.839 2°40.804 -999 -999 -999 -999 -999
2007-06-13 05:50:20 51°15.851 2°40.782 -999 -999 -999 -999 -999
2007-06-13 05:50:25 51°15.863 2°40.761 -999 -999 -999 -999 -999
2007-06-13 05:50:30 51°15.875 2°40.74 -999 -999 -999 -999 -999
2007-06-13 05:50:35 51°15.887 2°40.719 -999 -999 -999 -999 -999
2007-06-13 05:50:40 51°15.899 2°40.697 -999 -999 -999 -999 -999
2007-06-13 05:50:45 51°15.911 2°40.676 -999 -999 -999 -999 -999
2007-06-13 05:50:50 51°15.923 2°40.654 -999 -999 -999 -999 -999
2007-06-13 05:50:55 51°15.935 2°40.632 -999 -999 -999 -999 -999
2007-06-13 05:51:00 51°15.947 2°40.611 -999 -999 -999 -999 -999
2007-06-13 05:51:05 51°15.959 2°40.589 -999 -999 -999 -999 -999
2007-06-13 05:51:10 51°15.971 2°40.568 -999 -999 -999 -999 -999
2007-06-13 05:51:15 51°15.983 2°40.547 -999 -999 -999 -999 -999
2007-06-13 05:51:20 51°15.995 2°40.526 -999 -999 -999 -999 -999
2007-06-13 05:51:25 51°16.008 2°40.505 -999 -999 -999 -999 -999
2007-06-13 05:51:30 51°16.02 2°40.485 -999 -999 -999 -999 -999
2007-06-13 05:51:35 51°16.032 2°40.464 -999 -999 -999 -999 -999
2007-06-13 05:51:40 51°16.044 2°40.443 -999 -999 -999 -999 -999
2007-06-13 05:51:45 51°16.057 2°40.422 -999 -999 -999 -999 -999
2007-06-13 05:51:50 51°16.069 2°40.401 -999 -999 -999 -999 -999
2007-06-13 05:51:55 51°16.081 2°40.379 -999 -999 -999 -999 -999
2007-06-13 05:52:00 51°16.093 2°40.359 -999 -999 -999 -999 -999
2007-06-13 05:52:05 51°16.105 2°40.337 -999 -999 -999 -999 -999
2007-06-13 05:52:10 51°16.118 2°40.316 -999 -999 -999 -999 -999
2007-06-13 05:52:15 51°16.13 2°40.295 -999 -999 -999 -999 -999
2007-06-13 05:52:20 51°16.142 2°40.274 -999 -999 -999 -999 -999
2007-06-13 05:52:25 51°16.154 2°40.253 -999 -999 -999 -999 -999
2007-06-13 05:52:30 51°16.166 2°40.232 -999 -999 -999 -999 -999
2007-06-13 05:52:35 51°16.179 2°40.211 -999 -999 -999 -999 -999
2007-06-13 05:52:40 51°16.191 2°40.19 -999 -999 -999 -999 -999
2007-06-13 05:52:45 51°16.203 2°40.168 -999 -999 -999 -999 -999
2007-06-13 05:52:50 51°16.215 2°40.146 -999 -999 -999 -999 -999
2007-06-13 05:52:55 51°16.227 2°40.125 -999 -999 -999 -999 -999
2007-06-13 05:53:00 51°16.239 2°40.103 -999 -999 -999 -999 -999
2007-06-13 05:53:05 51°16.251 2°40.082 -999 -999 -999 -999 -999
2007-06-13 05:53:10 51°16.263 2°40.061 -999 -999 -999 -999 -999
2007-06-13 05:53:15 51°16.275 2°40.04 -999 -999 -999 -999 -999
2007-06-13 05:53:20 51°16.287 2°40.018 -999 -999 -999 -999 -999
2007-06-13 05:53:25 51°16.3 2°39.997 -999 -999 -999 -999 -999
2007-06-13 05:53:30 51°16.312 2°39.975 -999 -999 -999 -999 -999
2007-06-13 05:53:35 51°16.324 2°39.954 -999 -999 -999 -999 -999
2007-06-13 05:53:40 51°16.336 2°39.932 -999 -999 -999 -999 -999
2007-06-13 05:53:45 51°16.348 2°39.911 -999 -999 -999 -999 -999
2007-06-13 05:53:50 51°16.36 2°39.889 -999 -999 -999 -999 -999
2007-06-13 05:53:55 51°16.372 2°39.868 -999 -999 -999 -999 -999
2007-06-13 05:54:00 51°16.384 2°39.846 -999 -999 -999 -999 -999
2007-06-13 05:54:05 51°16.396 2°39.825 -999 -999 -999 -999 -999
2007-06-13 05:54:10 51°16.408 2°39.803 -999 -999 -999 -999 -999
2007-06-13 05:54:15 51°16.421 2°39.782 -999 -999 -999 -999 -999
2007-06-13 05:54:20 51°16.433 2°39.76 -999 -999 -999 -999 -999
2007-06-13 05:54:25 51°16.445 2°39.739 -999 -999 -999 -999 -999
2007-06-13 05:54:30 51°16.457 2°39.717 -999 -999 -999 -999 -999
2007-06-13 05:54:35 51°16.469 2°39.695 -999 -999 -999 -999 -999
2007-06-13 05:54:40 51°16.481 2°39.674 -999 -999 -999 -999 -999
2007-06-13 05:54:45 51°16.493 2°39.652 -999 -999 -999 -999 -999
2007-06-13 05:54:50 51°16.505 2°39.63 -999 -999 -999 -999 -999
2007-06-13 05:54:55 51°16.517 2°39.609 -999 -999 -999 -999 -999
2007-06-13 05:55:00 51°16.529 2°39.587 -999 -999 -999 -999 -999
2007-06-13 05:55:05 51°16.542 2°39.566 -999 -999 -999 -999 -999
2007-06-13 05:55:10 51°16.554 2°39.545 -999 -999 -999 -999 -999
2007-06-13 05:55:15 51°16.566 2°39.523 -999 -999 -999 -999 -999
2007-06-13 05:55:20 51°16.578 2°39.501 -999 -999 -999 -999 -999
2007-06-13 05:55:25 51°16.59 2°39.48 -999 -999 -999 -999 -999
2007-06-13 05:55:30 51°16.602 2°39.458 -999 -999 -999 -999 -999
2007-06-13 05:55:35 51°16.613 2°39.436 -999 -999 -999 -999 -999
2007-06-13 05:55:40 51°16.624 2°39.412 -999 -999 -999 -999 -999
2007-06-13 05:55:45 51°16.634 2°39.388 -999 -999 -999 -999 -999
2007-06-13 05:55:50 51°16.644 2°39.363 -999 -999 -999 -999 -999
2007-06-13 05:55:55 51°16.654 2°39.339 -999 -999 -999 -999 -999
2007-06-13 05:56:00 51°16.663 2°39.314 -999 -999 -999 -999 -999
2007-06-13 05:56:05 51°16.672 2°39.288 -999 -999 -999 -999 -999
2007-06-13 05:56:10 51°16.681 2°39.262 -999 -999 -999 -999 -999
2007-06-13 05:56:15 51°16.69 2°39.237 -999 -999 -999 -999 -999
2007-06-13 05:56:20 51°16.699 2°39.211 -999 -999 -999 -999 -999
2007-06-13 05:56:25 51°16.709 2°39.185 -999 -999 -999 -999 -999
2007-06-13 05:56:30 51°16.718 2°39.16 -999 -999 -999 -999 -999
2007-06-13 05:56:35 51°16.728 2°39.135 -999 -999 -999 -999 -999
2007-06-13 05:56:40 51°16.738 2°39.11 -999 -999 -999 -999 -999
2007-06-13 05:56:45 51°16.748 2°39.086 -999 -999 -999 -999 -999
2007-06-13 05:56:50 51°16.758 2°39.061 -999 -999 -999 -999 -999
2007-06-13 05:56:55 51°16.768 2°39.036 -999 -999 -999 -999 -999
2007-06-13 05:57:00 51°16.778 2°39.012 -999 -999 -999 -999 -999
2007-06-13 05:57:05 51°16.788 2°38.988 -999 -999 -999 -999 -999
2007-06-13 05:57:10 51°16.799 2°38.963 -999 -999 -999 -999 -999
2007-06-13 05:57:15 51°16.809 2°38.938 -999 -999 -999 -999 -999
2007-06-13 05:57:20 51°16.819 2°38.914 -999 -999 -999 -999 -999
2007-06-13 05:57:25 51°16.829 2°38.889 -999 -999 -999 -999 -999
2007-06-13 05:57:30 51°16.839 2°38.865 -999 -999 -999 -999 -999
2007-06-13 05:57:35 51°16.849 2°38.841 -999 -999 -999 -999 -999
2007-06-13 05:57:40 51°16.86 2°38.816 -999 -999 -999 -999 -999
2007-06-13 05:57:45 51°16.87 2°38.791 -999 -999 -999 -999 -999
2007-06-13 05:57:50 51°16.88 2°38.767 -999 -999 -999 -999 -999
2007-06-13 05:57:55 51°16.89 2°38.742 -999 -999 -999 -999 -999
2007-06-13 05:58:00 51°16.901 2°38.718 -999 -999 -999 -999 -999
2007-06-13 05:58:05 51°16.911 2°38.693 -999 -999 -999 -999 -999
2007-06-13 05:58:10 51°16.921 2°38.669 -999 -999 -999 -999 -999
2007-06-13 05:58:15 51°16.932 2°38.644 -999 -999 -999 -999 -999
2007-06-13 05:58:20 51°16.942 2°38.619 -999 -999 -999 -999 -999
2007-06-13 05:58:25 51°16.953 2°38.594 -999 -999 -999 -999 -999
2007-06-13 05:58:30 51°16.965 2°38.569 -999 -999 -999 -999 -999
2007-06-13 05:58:35 51°16.977 2°38.544 -999 -999 -999 -999 -999
2007-06-13 05:58:40 51°16.989 2°38.519 -999 -999 -999 -999 -999
2007-06-13 05:58:45 51°17.001 2°38.495 -999 -999 -999 -999 -999
2007-06-13 05:58:50 51°17.012 2°38.471 -999 -999 -999 -999 -999
2007-06-13 05:58:55 51°17.024 2°38.446 -999 -999 -999 -999 -999
2007-06-13 05:59:00 51°17.035 2°38.422 -999 -999 -999 -999 -999
2007-06-13 05:59:05 51°17.047 2°38.398 -999 -999 -999 -999 -999
2007-06-13 05:59:10 51°17.058 2°38.375 -999 -999 -999 -999 -999
2007-06-13 05:59:15 51°17.07 2°38.351 -999 -999 -999 -999 -999
2007-06-13 05:59:20 51°17.081 2°38.328 -999 -999 -999 -999 -999
2007-06-13 05:59:25 51°17.093 2°38.305 -999 -999 -999 -999 -999
2007-06-13 05:59:30 51°17.105 2°38.282 -999 -999 -999 -999 -999
2007-06-13 05:59:35 51°17.117 2°38.26 -999 -999 -999 -999 -999
2007-06-13 05:59:40 51°17.13 2°38.238 -999 -999 -999 -999 -999
2007-06-13 05:59:45 51°17.142 2°38.216 -999 -999 -999 -999 -999
2007-06-13 05:59:50 51°17.155 2°38.194 -999 -999 -999 -999 -999
2007-06-13 05:59:55 51°17.167 2°38.172 -999 -999 -999 -999 -999
2007-06-13 06:00:00 51°17.18 2°38.151 -999 -999 -999 -999 -999
2007-06-13 06:00:05 51°17.193 2°38.13 -999 -999 -999 -999 -999
2007-06-13 06:00:10 51°17.206 2°38.109 -999 -999 -999 -999 -999
2007-06-13 06:00:15 51°17.22 2°38.089 -999 -999 -999 -999 -999
2007-06-13 06:00:20 51°17.233 2°38.068 -999 -999 -999 -999 -999
2007-06-13 06:00:25 51°17.247 2°38.048 -999 -999 -999 -999 -999
2007-06-13 06:00:30 51°17.26 2°38.028 -999 -999 -999 -999 -999
2007-06-13 06:00:35 51°17.274 2°38.009 -999 -999 -999 -999 -999
2007-06-13 06:00:40 51°17.288 2°37.989 -999 -999 -999 -999 -999
2007-06-13 06:00:45 51°17.302 2°37.97 -999 -999 -999 -999 -999
2007-06-13 06:00:50 51°17.316 2°37.95 -999 -999 -999 -999 -999
2007-06-13 06:00:55 51°17.33 2°37.931 -999 -999 -999 -999 -999
2007-06-13 06:01:00 51°17.344 2°37.912 -999 -999 -999 -999 -999
2007-06-13 06:01:05 51°17.358 2°37.893 -999 -999 -999 -999 -999
2007-06-13 06:01:10 51°17.372 2°37.874 -999 -999 -999 -999 -999
2007-06-13 06:01:15 51°17.386 2°37.855 -999 -999 -999 -999 -999
2007-06-13 06:01:20 51°17.4 2°37.836 -999 -999 -999 -999 -999
2007-06-13 06:01:25 51°17.414 2°37.818 -999 -999 -999 -999 -999
2007-06-13 06:01:30 51°17.428 2°37.8 -999 -999 -999 -999 -999
2007-06-13 06:01:35 51°17.443 2°37.782 -999 -999 -999 -999 -999
2007-06-13 06:01:40 51°17.457 2°37.764 -999 -999 -999 -999 -999
2007-06-13 06:01:45 51°17.472 2°37.747 -999 -999 -999 -999 -999
2007-06-13 06:01:50 51°17.486 2°37.729 -999 -999 -999 -999 -999
2007-06-13 06:01:55 51°17.5 2°37.71 -999 -999 -999 -999 -999
2007-06-13 06:02:00 51°17.515 2°37.693 -999 -999 -999 -999 -999
2007-06-13 06:02:05 51°17.529 2°37.675 -999 -999 -999 -999 -999
2007-06-13 06:02:10 51°17.543 2°37.657 -999 -999 -999 -999 -999
2007-06-13 06:02:15 51°17.557 2°37.639 -999 -999 -999 -999 -999
2007-06-13 06:02:20 51°17.571 2°37.621 -999 -999 -999 -999 -999
2007-06-13 06:02:25 51°17.586 2°37.603 -999 -999 -999 -999 -999
2007-06-13 06:02:30 51°17.6 2°37.586 -999 -999 -999 -999 -999
2007-06-13 06:02:35 51°17.614 2°37.568 -999 -999 -999 -999 -999
2007-06-13 06:02:40 51°17.628 2°37.55 -999 -999 -999 -999 -999
2007-06-13 06:02:45 51°17.642 2°37.532 -999 -999 -999 -999 -999
2007-06-13 06:02:50 51°17.657 2°37.514 -999 -999 -999 -999 -999
2007-06-13 06:02:55 51°17.671 2°37.497 -999 -999 -999 -999 -999
2007-06-13 06:03:00 51°17.685 2°37.479 -999 -999 -999 -999 -999
2007-06-13 06:03:05 51°17.699 2°37.461 -999 -999 -999 -999 -999
2007-06-13 06:03:10 51°17.713 2°37.443 -999 -999 -999 -999 -999
2007-06-13 06:03:15 51°17.727 2°37.426 -999 -999 -999 -999 -999
2007-06-13 06:03:20 51°17.741 2°37.409 -999 -999 -999 -999 -999
2007-06-13 06:03:25 51°17.755 2°37.391 -999 -999 -999 -999 -999
2007-06-13 06:03:30 51°17.769 2°37.373 -999 -999 -999 -999 -999
2007-06-13 06:03:35 51°17.783 2°37.356 -999 -999 -999 -999 -999
2007-06-13 06:03:40 51°17.797 2°37.338 -999 -999 -999 -999 -999
2007-06-13 06:03:45 51°17.811 2°37.32 -999 -999 -999 -999 -999
2007-06-13 06:03:50 51°17.825 2°37.303 -999 -999 -999 -999 -999
2007-06-13 06:03:55 51°17.839 2°37.285 -999 -999 -999 -999 -999
2007-06-13 06:04:00 51°17.853 2°37.268 -999 -999 -999 -999 -999
2007-06-13 06:04:05 51°17.867 2°37.25 -999 -999 -999 -999 -999
2007-06-13 06:04:10 51°17.881 2°37.232 -999 -999 -999 -999 -999
2007-06-13 06:04:15 51°17.894 2°37.214 -999 -999 -999 -999 -999
2007-06-13 06:04:20 51°17.908 2°37.197 -999 -999 -999 -999 -999
2007-06-13 06:04:25 51°17.922 2°37.179 -999 -999 -999 -999 -999
2007-06-13 06:04:30 51°17.936 2°37.161 -999 -999 -999 -999 -999
2007-06-13 06:04:35 51°17.95 2°37.143 -999 -999 -999 -999 -999
2007-06-13 06:04:40 51°17.963 2°37.125 -999 -999 -999 -999 -999
2007-06-13 06:04:45 51°17.977 2°37.107 -999 -999 -999 -999 -999
2007-06-13 06:04:50 51°17.991 2°37.089 -999 -999 -999 -999 -999
2007-06-13 06:04:55 51°18.005 2°37.07 -999 -999 -999 -999 -999
2007-06-13 06:05:00 51°18.019 2°37.053 -999 -999 -999 -999 -999
2007-06-13 06:05:05 51°18.032 2°37.035 -999 -999 -999 -999 -999
2007-06-13 06:05:10 51°18.047 2°37.018 -999 -999 -999 -999 -999
2007-06-13 06:05:15 51°18.06 2°37 -999 -999 -999 -999 -999
2007-06-13 06:05:20 51°18.074 2°36.982 -999 -999 -999 -999 -999
2007-06-13 06:05:25 51°18.088 2°36.964 -999 -999 -999 -999 -999
2007-06-13 06:05:30 51°18.102 2°36.946 -999 -999 -999 -999 -999
2007-06-13 06:05:35 51°18.115 2°36.928 -999 -999 -999 -999 -999
2007-06-13 06:05:40 51°18.129 2°36.91 -999 -999 -999 -999 -999
2007-06-13 06:05:45 51°18.143 2°36.892 -999 -999 -999 -999 -999
2007-06-13 06:05:50 51°18.157 2°36.875 -999 -999 -999 -999 -999
2007-06-13 06:05:55 51°18.171 2°36.856 -999 -999 -999 -999 -999
2007-06-13 06:06:00 51°18.184 2°36.838 -999 -999 -999 -999 -999
2007-06-13 06:06:05 51°18.198 2°36.821 -999 -999 -999 -999 -999
2007-06-13 06:06:10 51°18.212 2°36.803 -999 -999 -999 -999 -999
2007-06-13 06:06:15 51°18.227 2°36.785 -999 -999 -999 -999 -999
2007-06-13 06:06:20 51°18.24 2°36.767 -999 -999 -999 -999 -999
2007-06-13 06:06:25 51°18.254 2°36.749 -999 -999 -999 -999 -999
2007-06-13 06:06:30 51°18.268 2°36.731 -999 -999 -999 -999 -999
2007-06-13 06:06:35 51°18.282 2°36.713 -999 -999 -999 -999 -999
2007-06-13 06:06:40 51°18.296 2°36.695 -999 -999 -999 -999 -999
2007-06-13 06:06:45 51°18.31 2°36.677 -999 -999 -999 -999 -999
2007-06-13 06:06:50 51°18.324 2°36.659 -999 -999 -999 -999 -999
2007-06-13 06:06:55 51°18.339 2°36.641 -999 -999 -999 -999 -999
2007-06-13 06:07:00 51°18.352 2°36.622 -999 -999 -999 -999 -999
2007-06-13 06:07:05 51°18.366 2°36.604 -999 -999 -999 -999 -999
2007-06-13 06:07:10 51°18.381 2°36.585 -999 -999 -999 -999 -999
2007-06-13 06:07:15 51°18.395 2°36.567 -999 -999 -999 -999 -999
2007-06-13 06:07:20 51°18.409 2°36.549 -999 -999 -999 -999 -999
2007-06-13 06:07:25 51°18.423 2°36.53 -999 -999 -999 -999 -999
2007-06-13 06:07:30 51°18.437 2°36.512 -999 -999 -999 -999 -999
2007-06-13 06:07:35 51°18.452 2°36.494 -999 -999 -999 -999 -999
2007-06-13 06:07:40 51°18.466 2°36.475 -999 -999 -999 -999 -999
2007-06-13 06:07:45 51°18.48 2°36.457 -999 -999 -999 -999 -999
2007-06-13 06:07:50 51°18.494 2°36.439 -999 -999 -999 -999 -999
2007-06-13 06:07:55 51°18.509 2°36.421 -999 -999 -999 -999 -999
2007-06-13 06:08:00 51°18.523 2°36.402 -999 -999 -999 -999 -999
2007-06-13 06:08:05 51°18.537 2°36.384 -999 -999 -999 -999 -999
2007-06-13 06:08:10 51°18.551 2°36.365 -999 -999 -999 -999 -999
2007-06-13 06:08:15 51°18.566 2°36.346 -999 -999 -999 -999 -999
2007-06-13 06:08:20 51°18.58 2°36.328 -999 -999 -999 -999 -999
2007-06-13 06:08:25 51°18.595 2°36.31 -999 -999 -999 -999 -999
2007-06-13 06:08:30 51°18.609 2°36.292 -999 -999 -999 -999 -999
2007-06-13 06:08:35 51°18.624 2°36.274 -999 -999 -999 -999 -999
2007-06-13 06:08:40 51°18.638 2°36.257 -999 -999 -999 -999 -999
2007-06-13 06:08:45 51°18.652 2°36.238 -999 -999 -999 -999 -999
2007-06-13 06:08:50 51°18.666 2°36.219 -999 -999 -999 -999 -999
2007-06-13 06:08:55 51°18.68 2°36.2 -999 -999 -999 -999 -999
2007-06-13 06:09:00 51°18.694 2°36.181 -999 -999 -999 -999 -999
2007-06-13 06:09:05 51°18.708 2°36.162 -999 -999 -999 -999 -999
2007-06-13 06:09:10 51°18.723 2°36.144 -999 -999 -999 -999 -999
2007-06-13 06:09:15 51°18.737 2°36.126 -999 -999 -999 -999 -999
2007-06-13 06:09:20 51°18.752 2°36.108 -999 -999 -999 -999 -999
2007-06-13 06:09:25 51°18.766 2°36.09 -999 -999 -999 -999 -999
2007-06-13 06:09:30 51°18.78 2°36.071 -999 -999 -999 -999 -999
2007-06-13 06:09:35 51°18.794 2°36.053 -999 -999 -999 -999 -999
2007-06-13 06:09:40 51°18.808 2°36.034 -999 -999 -999 -999 -999
2007-06-13 06:09:45 51°18.822 2°36.016 -999 -999 -999 -999 -999
2007-06-13 06:09:50 51°18.836 2°35.998 -999 -999 -999 -999 -999
2007-06-13 06:09:55 51°18.85 2°35.979 -999 -999 -999 -999 -999
2007-06-13 06:10:00 51°18.864 2°35.962 -999 -999 -999 -999 -999
2007-06-13 06:10:05 51°18.878 2°35.944 -999 -999 -999 -999 -999
2007-06-13 06:10:10 51°18.893 2°35.926 -999 -999 -999 -999 -999
2007-06-13 06:10:15 51°18.907 2°35.908 -999 -999 -999 -999 -999
2007-06-13 06:10:20 51°18.921 2°35.89 -999 -999 -999 -999 -999
2007-06-13 06:10:25 51°18.935 2°35.872 -999 -999 -999 -999 -999
2007-06-13 06:10:30 51°18.949 2°35.853 -999 -999 -999 -999 -999
2007-06-13 06:10:35 51°18.963 2°35.835 -999 -999 -999 -999 -999
2007-06-13 06:10:40 51°18.977 2°35.817 -999 -999 -999 -999 -999
2007-06-13 06:10:45 51°18.991 2°35.798 -999 -999 -999 -999 -999
2007-06-13 06:10:50 51°19.005 2°35.78 -999 -999 -999 -999 -999
2007-06-13 06:10:55 51°19.02 2°35.762 -999 -999 -999 -999 -999
2007-06-13 06:11:00 51°19.034 2°35.744 -999 -999 -999 -999 -999
2007-06-13 06:11:05 51°19.048 2°35.725 -999 -999 -999 -999 -999
2007-06-13 06:11:10 51°19.062 2°35.707 -999 -999 -999 -999 -999
2007-06-13 06:11:15 51°19.076 2°35.689 -999 -999 -999 -999 -999
2007-06-13 06:11:20 51°19.091 2°35.674 -999 -999 -999 -999 -999
2007-06-13 06:11:25 51°19.106 2°35.66 -999 -999 -999 -999 -999
2007-06-13 06:11:30 51°19.122 2°35.648 -999 -999 -999 -999 -999
2007-06-13 06:11:35 51°19.138 2°35.636 -999 -999 -999 -999 -999
2007-06-13 06:11:40 51°19.154 2°35.626 -999 -999 -999 -999 -999
2007-06-13 06:11:45 51°19.17 2°35.616 -999 -999 -999 -999 -999
2007-06-13 06:11:50 51°19.186 2°35.607 -999 -999 -999 -999 -999
2007-06-13 06:11:55 51°19.203 2°35.598 -999 -999 -999 -999 -999
2007-06-13 06:12:00 51°19.219 2°35.588 -999 -999 -999 -999 -999
2007-06-13 06:12:05 51°19.236 2°35.58 -999 -999 -999 -999 -999
2007-06-13 06:12:10 51°19.252 2°35.57 -999 -999 -999 -999 -999
2007-06-13 06:12:15 51°19.268 2°35.562 -999 -999 -999 -999 -999
2007-06-13 06:12:20 51°19.285 2°35.552 -999 -999 -999 -999 -999
2007-06-13 06:12:25 51°19.301 2°35.544 -999 -999 -999 -999 -999
2007-06-13 06:12:30 51°19.318 2°35.534 -999 -999 -999 -999 -999
2007-06-13 06:12:35 51°19.334 2°35.525 -999 -999 -999 -999 -999
2007-06-13 06:12:40 51°19.351 2°35.515 -999 -999 -999 -999 -999
2007-06-13 06:12:45 51°19.367 2°35.506 -999 -999 -999 -999 -999
2007-06-13 06:12:50 51°19.384 2°35.497 -999 -999 -999 -999 -999
2007-06-13 06:12:55 51°19.4 2°35.487 -999 -999 -999 -999 -999
2007-06-13 06:13:00 51°19.417 2°35.478 -999 -999 -999 -999 -999
2007-06-13 06:13:05 51°19.433 2°35.469 -999 -999 -999 -999 -999
2007-06-13 06:13:10 51°19.449 2°35.46 -999 -999 -999 -999 -999
2007-06-13 06:13:15 51°19.466 2°35.451 -999 -999 -999 -999 -999
2007-06-13 06:13:20 51°19.482 2°35.441 -999 -999 -999 -999 -999
2007-06-13 06:13:25 51°19.499 2°35.431 -999 -999 -999 -999 -999
2007-06-13 06:13:30 51°19.515 2°35.421 -999 -999 -999 -999 -999
2007-06-13 06:13:35 51°19.531 2°35.412 -999 -999 -999 -999 -999
2007-06-13 06:13:40 51°19.548 2°35.402 -999 -999 -999 -999 -999
2007-06-13 06:13:45 51°19.564 2°35.393 -999 -999 -999 -999 -999
2007-06-13 06:13:50 51°19.58 2°35.383 -999 -999 -999 -999 -999
2007-06-13 06:13:55 51°19.597 2°35.374 -999 -999 -999 -999 -999
2007-06-13 06:14:00 51°19.613 2°35.364 -999 -999 -999 -999 -999
2007-06-13 06:14:05 51°19.629 2°35.355 -999 -999 -999 -999 -999
2007-06-13 06:14:10 51°19.646 2°35.345 -999 -999 -999 -999 -999
2007-06-13 06:14:15 51°19.662 2°35.336 -999 -999 -999 -999 -999
2007-06-13 06:14:20 51°19.678 2°35.326 -999 -999 -999 -999 -999
2007-06-13 06:14:25 51°19.695 2°35.317 -999 -999 -999 -999 -999
2007-06-13 06:14:30 51°19.711 2°35.307 -999 -999 -999 -999 -999
2007-06-13 06:14:35 51°19.727 2°35.298 -999 -999 -999 -999 -999
2007-06-13 06:14:40 51°19.743 2°35.288 -999 -999 -999 -999 -999
2007-06-13 06:14:45 51°19.76 2°35.279 -999 -999 -999 -999 -999
2007-06-13 06:14:50 51°19.776 2°35.269 -999 -999 -999 -999 -999
2007-06-13 06:14:55 51°19.792 2°35.259 -999 -999 -999 -999 -999
2007-06-13 06:15:00 51°19.809 2°35.25 -999 -999 -999 -999 -999
2007-06-13 06:15:05 51°19.825 2°35.24 -999 -999 -999 -999 -999
2007-06-13 06:15:10 51°19.841 2°35.23 -999 -999 -999 -999 -999